sensor_id;sensor_type;location;lat;lon;timestamp;temperature;humidity
11009;DHT22;5557;51.670;7.788;2023-03-01T00:01:19;-1.40;17.60
11009;DHT22;5557;51.670;7.788;2023-03-01T00:03:48;-1.40;18.20
11009;DHT22;5557;51.670;7.788;2023-03-01T00:06:15;-1.50;18.50
11009;DHT22;5557;51.670;7.788;2023-03-01T00:08:42;-1.50;19.50
11009;DHT22;5557;51.670;7.788;2023-03-01T00:11:27;-1.50;18.80
11009;DHT22;5557;51.670;7.788;2023-03-01T00:13:57;-1.60;19.10
11009;DHT22;5557;51.670;7.788;2023-03-01T00:16:29;-1.70;19.40
11009;DHT22;5557;51.670;7.788;2023-03-01T00:18:57;-1.90;19.20
11009;DHT22;5557;51.670;7.788;2023-03-01T00:21:25;-2.00;19.20
11009;DHT22;5557;51.670;7.788;2023-03-01T00:23:54;-2.10;21.70
11009;DHT22;5557;51.670;7.788;2023-03-01T00:26:22;-2.10;23.30
11009;DHT22;5557;51.670;7.788;2023-03-01T00:28:50;-2.10;23.60
11009;DHT22;5557;51.670;7.788;2023-03-01T00:31:22;-2.20;25.20
11009;DHT22;5557;51.670;7.788;2023-03-01T00:33:53;-2.20;25.60
11009;DHT22;5557;51.670;7.788;2023-03-01T00:36:25;-2.10;28.70
11009;DHT22;5557;51.670;7.788;2023-03-01T00:38:52;-2.10;30.50
11009;DHT22;5557;51.670;7.788;2023-03-01T00:41:20;-2.10;31.70
11009;DHT22;5557;51.670;7.788;2023-03-01T00:43:50;-2.00;30.00
11009;DHT22;5557;51.670;7.788;2023-03-01T00:46:20;-2.00;30.00
11009;DHT22;5557;51.670;7.788;2023-03-01T00:48:47;-1.80;29.30
11009;DHT22;5557;51.670;7.788;2023-03-01T00:51:18;-1.80;27.00
11009;DHT22;5557;51.670;7.788;2023-03-01T00:53:45;-1.90;26.20
11009;DHT22;5557;51.670;7.788;2023-03-01T00:56:14;-2.00;26.10
11009;DHT22;5557;51.670;7.788;2023-03-01T00:58:41;-2.20;25.60
11009;DHT22;5557;51.670;7.788;2023-03-01T01:01:14;-2.40;26.60
11009;DHT22;5557;51.670;7.788;2023-03-01T01:03:52;-2.40;31.40
11009;DHT22;5557;51.670;7.788;2023-03-01T01:06:32;-2.30;34.30
11009;DHT22;5557;51.670;7.788;2023-03-01T01:08:59;-2.20;36.40
11009;DHT22;5557;51.670;7.788;2023-03-01T01:11:28;-2.20;36.30
11009;DHT22;5557;51.670;7.788;2023-03-01T01:13:56;-2.10;35.40
11009;DHT22;5557;51.670;7.788;2023-03-01T01:16:25;-2.10;34.70
11009;DHT22;5557;51.670;7.788;2023-03-01T01:18:52;-2.10;33.60
11009;DHT22;5557;51.670;7.788;2023-03-01T01:21:21;-2.10;34.90
11009;DHT22;5557;51.670;7.788;2023-03-01T01:23:50;-2.20;33.10
11009;DHT22;5557;51.670;7.788;2023-03-01T01:26:28;-2.20;33.60
11009;DHT22;5557;51.670;7.788;2023-03-01T01:28:56;-2.30;33.30
11009;DHT22;5557;51.670;7.788;2023-03-01T01:31:24;-2.20;35.00
11009;DHT22;5557;51.670;7.788;2023-03-01T01:33:52;-2.20;35.10
11009;DHT22;5557;51.670;7.788;2023-03-01T01:36:19;-2.10;34.00
11009;DHT22;5557;51.670;7.788;2023-03-01T01:38:46;-2.10;32.60
11009;DHT22;5557;51.670;7.788;2023-03-01T01:41:14;-2.10;31.50
11009;DHT22;5557;51.670;7.788;2023-03-01T01:43:44;-2.20;29.60
11009;DHT22;5557;51.670;7.788;2023-03-01T01:46:31;-2.30;31.40
11009;DHT22;5557;51.670;7.788;2023-03-01T01:49:35;-2.30;33.60
11009;DHT22;5557;51.670;7.788;2023-03-01T01:52:34;-2.30;33.60
11009;DHT22;5557;51.670;7.788;2023-03-01T01:55:05;-2.20;33.50
11009;DHT22;5557;51.670;7.788;2023-03-01T01:57:48;-2.30;32.20
11009;DHT22;5557;51.670;7.788;2023-03-01T02:00:25;-2.30;32.80
11009;DHT22;5557;51.670;7.788;2023-03-01T02:02:57;-2.30;33.20
11009;DHT22;5557;51.670;7.788;2023-03-01T02:06:19;-2.40;31.90
11009;DHT22;5557;51.670;7.788;2023-03-01T02:08:38;-2.60;31.90
11009;DHT22;5557;51.670;7.788;2023-03-01T02:11:08;-2.70;34.70
11009;DHT22;5557;51.670;7.788;2023-03-01T02:13:35;-2.60;40.20
11009;DHT22;5557;51.670;7.788;2023-03-01T02:16:08;-2.50;41.50
11009;DHT22;5557;51.670;7.788;2023-03-01T02:18:37;-2.50;41.40
11009;DHT22;5557;51.670;7.788;2023-03-01T02:24:28;-2.40;37.90
11009;DHT22;5557;51.670;7.788;2023-03-01T02:26:57;-2.50;38.60
11009;DHT22;5557;51.670;7.788;2023-03-01T02:29:26;-2.40;40.20
11009;DHT22;5557;51.670;7.788;2023-03-01T02:31:57;-2.50;39.10
11009;DHT22;5557;51.670;7.788;2023-03-01T02:34:25;-2.50;39.40
11009;DHT22;5557;51.670;7.788;2023-03-01T02:37:05;-2.60;39.20
11009;DHT22;5557;51.670;7.788;2023-03-01T02:39:39;-2.50;41.40
11009;DHT22;5557;51.670;7.788;2023-03-01T02:42:14;-2.50;41.50
11009;DHT22;5557;51.670;7.788;2023-03-01T02:44:42;-2.50;41.50
11009;DHT22;5557;51.670;7.788;2023-03-01T02:47:09;-2.50;40.90
11009;DHT22;5557;51.670;7.788;2023-03-01T02:49:37;-2.50;39.80
11009;DHT22;5557;51.670;7.788;2023-03-01T02:52:33;-2.60;39.00
11009;DHT22;5557;51.670;7.788;2023-03-01T02:55:12;-2.60;39.20
11009;DHT22;5557;51.670;7.788;2023-03-01T02:57:43;-2.60;42.00
11009;DHT22;5557;51.670;7.788;2023-03-01T03:00:16;-2.60;41.40
11009;DHT22;5557;51.670;7.788;2023-03-01T03:02:51;-2.60;41.60
11009;DHT22;5557;51.670;7.788;2023-03-01T03:05:24;-2.60;42.30
11009;DHT22;5557;51.670;7.788;2023-03-01T03:07:52;-2.60;42.40
11009;DHT22;5557;51.670;7.788;2023-03-01T03:10:31;-2.60;41.80
11009;DHT22;5557;51.670;7.788;2023-03-01T03:13:04;-2.60;41.40
11009;DHT22;5557;51.670;7.788;2023-03-01T03:15:31;-2.70;41.10
11009;DHT22;5557;51.670;7.788;2023-03-01T03:17:59;-2.70;39.90
11009;DHT22;5557;51.670;7.788;2023-03-01T03:20:28;-2.80;41.20
11009;DHT22;5557;51.670;7.788;2023-03-01T03:22:56;-2.90;40.60
11009;DHT22;5557;51.670;7.788;2023-03-01T03:25:26;-3.00;41.00
11009;DHT22;5557;51.670;7.788;2023-03-01T03:27:54;-3.10;41.90
11009;DHT22;5557;51.670;7.788;2023-03-01T03:30:30;-3.10;45.10
11009;DHT22;5557;51.670;7.788;2023-03-01T03:32:58;-3.10;44.70
11009;DHT22;5557;51.670;7.788;2023-03-01T03:35:29;-3.20;43.90
11009;DHT22;5557;51.670;7.788;2023-03-01T03:37:58;-3.40;44.40
11009;DHT22;5557;51.670;7.788;2023-03-01T03:40:40;-3.40;48.30
11009;DHT22;5557;51.670;7.788;2023-03-01T03:43:19;-3.30;53.30
11009;DHT22;5557;51.670;7.788;2023-03-01T03:45:47;-3.30;55.70
11009;DHT22;5557;51.670;7.788;2023-03-01T03:48:15;-3.30;56.70
11009;DHT22;5557;51.670;7.788;2023-03-01T03:50:48;-3.30;56.90
11009;DHT22;5557;51.670;7.788;2023-03-01T03:53:15;-3.40;55.50
11009;DHT22;5557;51.670;7.788;2023-03-01T03:55:42;-3.50;57.30
11009;DHT22;5557;51.670;7.788;2023-03-01T03:58:11;-3.50;58.30
11009;DHT22;5557;51.670;7.788;2023-03-01T04:00:40;-3.60;60.10
11009;DHT22;5557;51.670;7.788;2023-03-01T04:03:08;-3.60;61.10
11009;DHT22;5557;51.670;7.788;2023-03-01T04:05:37;-3.60;60.90
11009;DHT22;5557;51.670;7.788;2023-03-01T04:08:04;-3.70;61.90
11009;DHT22;5557;51.670;7.788;2023-03-01T04:10:39;-3.70;62.90
11009;DHT22;5557;51.670;7.788;2023-03-01T04:13:09;-3.70;62.90
11009;DHT22;5557;51.670;7.788;2023-03-01T04:15:37;-3.70;63.40
11009;DHT22;5557;51.670;7.788;2023-03-01T04:18:04;-3.60;65.80
11009;DHT22;5557;51.670;7.788;2023-03-01T04:20:34;-3.60;66.60
11009;DHT22;5557;51.670;7.788;2023-03-01T04:23:06;-3.60;65.30
11009;DHT22;5557;51.670;7.788;2023-03-01T04:26:00;-3.70;64.20
11009;DHT22;5557;51.670;7.788;2023-03-01T04:28:28;-3.70;65.60
11009;DHT22;5557;51.670;7.788;2023-03-01T04:30:56;-3.60;67.10
11009;DHT22;5557;51.670;7.788;2023-03-01T04:33:24;-3.60;67.90
11009;DHT22;5557;51.670;7.788;2023-03-01T04:35:51;-3.60;66.60
11009;DHT22;5557;51.670;7.788;2023-03-01T04:38:19;-3.70;64.50
11009;DHT22;5557;51.670;7.788;2023-03-01T04:40:48;-3.80;63.40
11009;DHT22;5557;51.670;7.788;2023-03-01T04:43:15;-3.90;64.40
11009;DHT22;5557;51.670;7.788;2023-03-01T04:45:42;-3.80;67.80
11009;DHT22;5557;51.670;7.788;2023-03-01T04:48:09;-3.70;71.00
11009;DHT22;5557;51.670;7.788;2023-03-01T04:50:36;-3.70;71.70
11009;DHT22;5557;51.670;7.788;2023-03-01T04:53:03;-3.60;73.10
11009;DHT22;5557;51.670;7.788;2023-03-01T04:55:30;-3.50;72.70
11009;DHT22;5557;51.670;7.788;2023-03-01T04:57:58;-3.40;70.00
11009;DHT22;5557;51.670;7.788;2023-03-01T05:00:25;-3.30;67.90
11009;DHT22;5557;51.670;7.788;2023-03-01T05:02:57;-3.20;64.30
11009;DHT22;5557;51.670;7.788;2023-03-01T05:05:35;-3.30;61.40
11009;DHT22;5557;51.670;7.788;2023-03-01T05:08:05;-3.40;60.00
11009;DHT22;5557;51.670;7.788;2023-03-01T05:10:35;-3.40;60.00
11009;DHT22;5557;51.670;7.788;2023-03-01T05:13:02;-3.50;58.80
11009;DHT22;5557;51.670;7.788;2023-03-01T05:15:31;-3.60;58.70
11009;DHT22;5557;51.670;7.788;2023-03-01T05:17:59;-3.70;57.80
11009;DHT22;5557;51.670;7.788;2023-03-01T05:20:28;-3.90;57.40
11009;DHT22;5557;51.670;7.788;2023-03-01T05:22:57;-4.10;58.10
11009;DHT22;5557;51.670;7.788;2023-03-01T05:25:26;-4.20;58.80
11009;DHT22;5557;51.670;7.788;2023-03-01T05:27:53;-4.30;59.70
11009;DHT22;5557;51.670;7.788;2023-03-01T05:30:20;-4.40;61.40
11009;DHT22;5557;51.670;7.788;2023-03-01T05:32:50;-4.50;63.70
11009;DHT22;5557;51.670;7.788;2023-03-01T05:35:22;-4.70;65.00
11009;DHT22;5557;51.670;7.788;2023-03-01T05:37:50;-4.70;68.40
11009;DHT22;5557;51.670;7.788;2023-03-01T05:40:24;-4.60;76.60
11009;DHT22;5557;51.670;7.788;2023-03-01T05:42:55;-4.60;78.20
11009;DHT22;5557;51.670;7.788;2023-03-01T05:45:24;-4.60;79.00
11009;DHT22;5557;51.670;7.788;2023-03-01T05:47:52;-4.70;77.70
11009;DHT22;5557;51.670;7.788;2023-03-01T05:50:24;-4.90;77.40
11009;DHT22;5557;51.670;7.788;2023-03-01T05:53:15;-5.00;78.20
11009;DHT22;5557;51.670;7.788;2023-03-01T05:55:43;-5.10;79.40
11009;DHT22;5557;51.670;7.788;2023-03-01T05:58:13;-5.10;83.00
11009;DHT22;5557;51.670;7.788;2023-03-01T06:00:41;-5.10;86.00
11009;DHT22;5557;51.670;7.788;2023-03-01T06:03:11;-5.10;88.10
11009;DHT22;5557;51.670;7.788;2023-03-01T06:05:39;-5.10;90.10
11009;DHT22;5557;51.670;7.788;2023-03-01T06:08:06;-5.10;90.90
11009;DHT22;5557;51.670;7.788;2023-03-01T06:10:33;-5.10;92.20
11009;DHT22;5557;51.670;7.788;2023-03-01T06:13:00;-4.90;95.40
11009;DHT22;5557;51.670;7.788;2023-03-01T06:15:27;-4.70;98.00
11009;DHT22;5557;51.670;7.788;2023-03-01T06:17:55;-4.60;99.30
11009;DHT22;5557;51.670;7.788;2023-03-01T06:20:27;-4.50;99.40
11009;DHT22;5557;51.670;7.788;2023-03-01T06:22:54;-4.50;99.50
11009;DHT22;5557;51.670;7.788;2023-03-01T06:25:23;-4.40;99.10
11009;DHT22;5557;51.670;7.788;2023-03-01T06:27:50;-4.30;99.50
11009;DHT22;5557;51.670;7.788;2023-03-01T06:30:21;-4.20;99.90
11009;DHT22;5557;51.670;7.788;2023-03-01T06:32:49;-4.10;99.90
11009;DHT22;5557;51.670;7.788;2023-03-01T06:35:17;-3.90;99.90
11009;DHT22;5557;51.670;7.788;2023-03-01T06:37:45;-3.70;99.90
11009;DHT22;5557;51.670;7.788;2023-03-01T06:40:13;-3.50;99.90
11009;DHT22;5557;51.670;7.788;2023-03-01T06:42:43;-3.20;99.90
11009;DHT22;5557;51.670;7.788;2023-03-01T06:45:13;-2.90;98.30
11009;DHT22;5557;51.670;7.788;2023-03-01T06:47:40;-2.70;96.20
11009;DHT22;5557;51.670;7.788;2023-03-01T06:50:08;-2.40;94.00
11009;DHT22;5557;51.670;7.788;2023-03-01T06:52:35;-2.10;92.50
11009;DHT22;5557;51.670;7.788;2023-03-01T06:55:03;-1.70;90.20
11009;DHT22;5557;51.670;7.788;2023-03-01T06:57:30;-1.30;85.00
11009;DHT22;5557;51.670;7.788;2023-03-01T06:59:57;-0.90;78.50
11009;DHT22;5557;51.670;7.788;2023-03-01T07:02:24;-0.50;69.00
11009;DHT22;5557;51.670;7.788;2023-03-01T07:04:51;-0.20;54.70
11009;DHT22;5557;51.670;7.788;2023-03-01T07:07:18;0.20;42.10
11009;DHT22;5557;51.670;7.788;2023-03-01T07:09:46;0.50;28.80
11009;DHT22;5557;51.670;7.788;2023-03-01T07:12:13;0.90;10.80
11009;DHT22;5557;51.670;7.788;2023-03-01T07:14:40;1.00;4.00
11009;DHT22;5557;51.670;7.788;2023-03-01T07:17:07;1.30;3.00
11009;DHT22;5557;51.670;7.788;2023-03-01T07:19:34;1.70;1.00
11009;DHT22;5557;51.670;7.788;2023-03-01T07:22:02;2.00;1.00
11009;DHT22;5557;51.670;7.788;2023-03-01T07:24:30;1.90;1.00
11009;DHT22;5557;51.670;7.788;2023-03-01T07:26:57;1.90;1.00
11009;DHT22;5557;51.670;7.788;2023-03-01T07:29:24;2.00;1.00
11009;DHT22;5557;51.670;7.788;2023-03-01T07:31:51;2.10;1.00
11009;DHT22;5557;51.670;7.788;2023-03-01T07:34:18;2.40;1.00
11009;DHT22;5557;51.670;7.788;2023-03-01T07:36:45;2.80;1.00
11009;DHT22;5557;51.670;7.788;2023-03-01T07:39:12;3.20;1.00
11009;DHT22;5557;51.670;7.788;2023-03-01T07:41:39;3.40;1.00
11009;DHT22;5557;51.670;7.788;2023-03-01T07:44:06;3.40;1.00
11009;DHT22;5557;51.670;7.788;2023-03-01T07:46:33;3.80;1.00
11009;DHT22;5557;51.670;7.788;2023-03-01T07:49:00;3.60;1.00
11009;DHT22;5557;51.670;7.788;2023-03-01T07:51:27;3.90;1.00
11009;DHT22;5557;51.670;7.788;2023-03-01T07:53:54;4.50;1.00
11009;DHT22;5557;51.670;7.788;2023-03-01T07:56:21;5.00;1.00
11009;DHT22;5557;51.670;7.788;2023-03-01T07:58:48;5.20;1.00
11009;DHT22;5557;51.670;7.788;2023-03-01T08:01:19;5.70;1.00
11009;DHT22;5557;51.670;7.788;2023-03-01T08:03:46;6.10;1.00
11009;DHT22;5557;51.670;7.788;2023-03-01T08:06:15;6.50;1.00
11009;DHT22;5557;51.670;7.788;2023-03-01T08:08:42;6.10;1.00
11009;DHT22;5557;51.670;7.788;2023-03-01T08:11:11;5.70;1.00
11009;DHT22;5557;51.670;7.788;2023-03-01T08:13:39;5.90;1.00
11009;DHT22;5557;51.670;7.788;2023-03-01T08:16:09;5.80;1.00
11009;DHT22;5557;51.670;7.788;2023-03-01T08:18:37;5.70;1.00
11009;DHT22;5557;51.670;7.788;2023-03-01T08:21:15;6.10;1.00
11009;DHT22;5557;51.670;7.788;2023-03-01T08:23:43;6.50;1.00
11009;DHT22;5557;51.670;7.788;2023-03-01T08:26:19;6.70;1.00
11009;DHT22;5557;51.670;7.788;2023-03-01T08:28:48;7.00;1.00
11009;DHT22;5557;51.670;7.788;2023-03-01T08:31:36;7.30;1.00
11009;DHT22;5557;51.670;7.788;2023-03-01T08:34:07;7.20;1.00
11009;DHT22;5557;51.670;7.788;2023-03-01T08:36:39;7.80;1.00
11009;DHT22;5557;51.670;7.788;2023-03-01T08:39:07;7.70;1.00
11009;DHT22;5557;51.670;7.788;2023-03-01T08:41:34;7.70;1.00
11009;DHT22;5557;51.670;7.788;2023-03-01T08:44:02;7.60;1.00
11009;DHT22;5557;51.670;7.788;2023-03-01T08:46:34;7.70;1.00
11009;DHT22;5557;51.670;7.788;2023-03-01T08:49:07;7.40;1.00
11009;DHT22;5557;51.670;7.788;2023-03-01T08:51:35;6.90;1.00
11009;DHT22;5557;51.670;7.788;2023-03-01T08:54:10;7.10;1.00
11009;DHT22;5557;51.670;7.788;2023-03-01T08:56:38;7.30;1.00
11009;DHT22;5557;51.670;7.788;2023-03-01T08:59:05;7.30;1.00
11009;DHT22;5557;51.670;7.788;2023-03-01T09:01:32;7.30;1.00
11009;DHT22;5557;51.670;7.788;2023-03-01T09:03:59;7.50;1.00
11009;DHT22;5557;51.670;7.788;2023-03-01T09:06:26;8.10;1.00
11009;DHT22;5557;51.670;7.788;2023-03-01T09:08:53;8.00;1.00
11009;DHT22;5557;51.670;7.788;2023-03-01T09:11:21;8.00;1.00
11009;DHT22;5557;51.670;7.788;2023-03-01T09:13:49;7.70;1.00
11009;DHT22;5557;51.670;7.788;2023-03-01T09:16:18;7.70;1.00
11009;DHT22;5557;51.670;7.788;2023-03-01T09:18:50;7.80;1.00
11009;DHT22;5557;51.670;7.788;2023-03-01T09:21:19;8.50;1.00
11009;DHT22;5557;51.670;7.788;2023-03-01T09:24:04;8.40;1.00
11009;DHT22;5557;51.670;7.788;2023-03-01T09:26:32;8.00;1.00
11009;DHT22;5557;51.670;7.788;2023-03-01T09:28:59;7.90;1.00
11009;DHT22;5557;51.670;7.788;2023-03-01T09:31:26;8.00;1.00
11009;DHT22;5557;51.670;7.788;2023-03-01T09:33:53;7.20;1.00
11009;DHT22;5557;51.670;7.788;2023-03-01T09:36:23;7.20;1.00
11009;DHT22;5557;51.670;7.788;2023-03-01T09:38:52;6.90;1.00
11009;DHT22;5557;51.670;7.788;2023-03-01T09:42:01;7.00;1.00
11009;DHT22;5557;51.670;7.788;2023-03-01T09:44:50;6.70;1.00
11009;DHT22;5557;51.670;7.788;2023-03-01T09:47:21;6.90;1.00
11009;DHT22;5557;51.670;7.788;2023-03-01T09:50:10;6.30;1.00
11009;DHT22;5557;51.670;7.788;2023-03-01T09:53:03;6.40;1.00
11009;DHT22;5557;51.670;7.788;2023-03-01T09:56:05;6.50;1.00
11009;DHT22;5557;51.670;7.788;2023-03-01T10:01:32;5.70;1.00
11009;DHT22;5557;51.670;7.788;2023-03-01T10:06:58;5.40;1.00
11009;DHT22;5557;51.670;7.788;2023-03-01T10:09:33;5.60;1.00
11009;DHT22;5557;51.670;7.788;2023-03-01T10:12:02;5.40;1.00
11009;DHT22;5557;51.670;7.788;2023-03-01T10:17:41;5.40;1.00
11009;DHT22;5557;51.670;7.788;2023-03-01T10:21:02;5.30;1.00
11009;DHT22;5557;51.670;7.788;2023-03-01T10:23:34;5.40;1.00
11009;DHT22;5557;51.670;7.788;2023-03-01T10:27:22;5.30;1.00
11009;DHT22;5557;51.670;7.788;2023-03-01T10:29:18;5.20;1.00
11009;DHT22;5557;51.670;7.788;2023-03-01T10:31:51;5.10;1.00
11009;DHT22;5557;51.670;7.788;2023-03-01T10:37:19;5.30;1.00
11009;DHT22;5557;51.670;7.788;2023-03-01T10:40:00;5.30;1.00
11009;DHT22;5557;51.670;7.788;2023-03-01T10:42:39;5.30;1.00
11009;DHT22;5557;51.670;7.788;2023-03-01T10:48:20;5.40;1.00
11009;DHT22;5557;51.670;7.788;2023-03-01T10:53:54;5.70;1.00
11009;DHT22;5557;51.670;7.788;2023-03-01T10:56:21;5.50;1.00
11009;DHT22;5557;51.670;7.788;2023-03-01T10:59:04;5.20;1.00
11009;DHT22;5557;51.670;7.788;2023-03-01T11:01:33;5.20;1.00
11009;DHT22;5557;51.670;7.788;2023-03-01T11:04:20;5.20;1.00
11009;DHT22;5557;51.670;7.788;2023-03-01T11:06:58;5.40;1.00
11009;DHT22;5557;51.670;7.788;2023-03-01T11:09:26;5.50;1.00
11009;DHT22;5557;51.670;7.788;2023-03-01T11:12:00;5.70;1.00
11009;DHT22;5557;51.670;7.788;2023-03-01T11:14:33;5.70;1.00
11009;DHT22;5557;51.670;7.788;2023-03-01T11:17:04;5.60;1.00
11009;DHT22;5557;51.670;7.788;2023-03-01T11:19:32;5.70;1.00
11009;DHT22;5557;51.670;7.788;2023-03-01T11:22:17;5.50;1.00
11009;DHT22;5557;51.670;7.788;2023-03-01T11:24:49;5.60;1.00
11009;DHT22;5557;51.670;7.788;2023-03-01T11:27:38;5.60;1.00
11009;DHT22;5557;51.670;7.788;2023-03-01T11:30:21;5.60;1.00
11009;DHT22;5557;51.670;7.788;2023-03-01T11:38:29;5.20;1.00
11009;DHT22;5557;51.670;7.788;2023-03-01T11:41:08;5.10;1.00
11009;DHT22;5557;51.670;7.788;2023-03-01T11:43:54;4.90;1.00
11009;DHT22;5557;51.670;7.788;2023-03-01T11:46:37;4.90;1.00
11009;DHT22;5557;51.670;7.788;2023-03-01T11:51:21;4.90;1.00
11009;DHT22;5557;51.670;7.788;2023-03-01T11:56:34;4.90;1.00
11009;DHT22;5557;51.670;7.788;2023-03-01T11:59:42;5.10;1.00
11009;DHT22;5557;51.670;7.788;2023-03-01T12:08:54;5.00;1.00
11009;DHT22;5557;51.670;7.788;2023-03-01T12:18:02;5.10;1.00
11009;DHT22;5557;51.670;7.788;2023-03-01T12:23:49;5.20;1.00
11009;DHT22;5557;51.670;7.788;2023-03-01T12:26:45;5.20;1.00
11009;DHT22;5557;51.670;7.788;2023-03-01T12:35:54;5.30;1.00
11009;DHT22;5557;51.670;7.788;2023-03-01T12:42:59;5.60;1.00
11009;DHT22;5557;51.670;7.788;2023-03-01T12:47:19;5.50;1.00
11009;DHT22;5557;51.670;7.788;2023-03-01T12:49:55;5.40;1.00
11009;DHT22;5557;51.670;7.788;2023-03-01T12:52:45;5.40;1.00
11009;DHT22;5557;51.670;7.788;2023-03-01T12:55:34;5.50;1.00
11009;DHT22;5557;51.670;7.788;2023-03-01T12:58:26;5.60;1.00
11009;DHT22;5557;51.670;7.788;2023-03-01T13:04:44;5.80;1.00
11009;DHT22;5557;51.670;7.788;2023-03-01T13:08:04;5.80;1.00
11009;DHT22;5557;51.670;7.788;2023-03-01T13:10:43;5.70;1.00
11009;DHT22;5557;51.670;7.788;2023-03-01T13:13:24;5.60;1.00
11009;DHT22;5557;51.670;7.788;2023-03-01T13:15:53;5.80;1.00
11009;DHT22;5557;51.670;7.788;2023-03-01T13:18:30;5.70;1.00
11009;DHT22;5557;51.670;7.788;2023-03-01T13:20:59;5.70;1.00
11009;DHT22;5557;51.670;7.788;2023-03-01T13:23:33;5.70;1.00
11009;DHT22;5557;51.670;7.788;2023-03-01T13:28:54;5.70;1.00
11009;DHT22;5557;51.670;7.788;2023-03-01T13:33:55;5.90;1.00
11009;DHT22;5557;51.670;7.788;2023-03-01T13:36:48;5.80;1.00
11009;DHT22;5557;51.670;7.788;2023-03-01T13:39:39;5.80;1.00
11009;DHT22;5557;51.670;7.788;2023-03-01T13:42:39;5.80;1.00
11009;DHT22;5557;51.670;7.788;2023-03-01T13:45:39;5.90;1.00
11009;DHT22;5557;51.670;7.788;2023-03-01T13:48:15;6.00;1.00
11009;DHT22;5557;51.670;7.788;2023-03-01T13:50:49;5.90;1.00
11009;DHT22;5557;51.670;7.788;2023-03-01T13:53:23;5.90;1.00
11009;DHT22;5557;51.670;7.788;2023-03-01T13:55:55;5.90;1.00
11009;DHT22;5557;51.670;7.788;2023-03-01T13:58:28;5.90;1.00
11009;DHT22;5557;51.670;7.788;2023-03-01T14:01:04;5.80;1.00
11009;DHT22;5557;51.670;7.788;2023-03-01T14:03:33;5.90;1.00
11009;DHT22;5557;51.670;7.788;2023-03-01T14:06:06;6.10;1.00
11009;DHT22;5557;51.670;7.788;2023-03-01T14:08:42;6.20;1.00
11009;DHT22;5557;51.670;7.788;2023-03-01T14:11:52;6.20;1.00
11009;DHT22;5557;51.670;7.788;2023-03-01T14:15:24;6.10;1.00
11009;DHT22;5557;51.670;7.788;2023-03-01T14:18:12;6.20;1.00
11009;DHT22;5557;51.670;7.788;2023-03-01T14:20:43;6.30;1.00
11009;DHT22;5557;51.670;7.788;2023-03-01T14:23:14;6.30;1.00
11009;DHT22;5557;51.670;7.788;2023-03-01T14:25:53;6.30;1.00
11009;DHT22;5557;51.670;7.788;2023-03-01T14:28:29;6.30;1.00
11009;DHT22;5557;51.670;7.788;2023-03-01T14:30:59;6.40;1.00
11009;DHT22;5557;51.670;7.788;2023-03-01T14:33:32;6.40;1.00
11009;DHT22;5557;51.670;7.788;2023-03-01T14:36:10;6.40;1.00
11009;DHT22;5557;51.670;7.788;2023-03-01T14:38:40;6.20;1.00
11009;DHT22;5557;51.670;7.788;2023-03-01T14:41:14;6.10;1.00
11009;DHT22;5557;51.670;7.788;2023-03-01T14:43:49;6.20;1.00
11009;DHT22;5557;51.670;7.788;2023-03-01T14:46:23;6.20;1.00
11009;DHT22;5557;51.670;7.788;2023-03-01T14:48:54;6.30;1.00
11009;DHT22;5557;51.670;7.788;2023-03-01T14:51:22;6.30;1.00
11009;DHT22;5557;51.670;7.788;2023-03-01T14:53:49;6.40;1.00
11009;DHT22;5557;51.670;7.788;2023-03-01T14:56:17;6.30;1.00
11009;DHT22;5557;51.670;7.788;2023-03-01T14:58:46;6.20;1.00
11009;DHT22;5557;51.670;7.788;2023-03-01T15:01:16;6.20;1.00
11009;DHT22;5557;51.670;7.788;2023-03-01T15:03:49;6.20;1.00
11009;DHT22;5557;51.670;7.788;2023-03-01T15:06:22;6.20;1.00
11009;DHT22;5557;51.670;7.788;2023-03-01T15:08:53;6.20;1.00
11009;DHT22;5557;51.670;7.788;2023-03-01T15:11:31;6.30;1.00
11009;DHT22;5557;51.670;7.788;2023-03-01T15:13:59;6.30;1.00
11009;DHT22;5557;51.670;7.788;2023-03-01T15:16:32;6.40;1.00
11009;DHT22;5557;51.670;7.788;2023-03-01T15:19:03;6.40;1.00
11009;DHT22;5557;51.670;7.788;2023-03-01T15:21:35;6.40;1.00
11009;DHT22;5557;51.670;7.788;2023-03-01T15:24:18;6.30;1.00
11009;DHT22;5557;51.670;7.788;2023-03-01T15:27:05;6.30;1.00
11009;DHT22;5557;51.670;7.788;2023-03-01T15:29:35;6.30;1.00
11009;DHT22;5557;51.670;7.788;2023-03-01T15:32:35;6.30;1.00
11009;DHT22;5557;51.670;7.788;2023-03-01T15:38:26;6.30;1.00
11009;DHT22;5557;51.670;7.788;2023-03-01T15:40:55;6.20;1.00
11009;DHT22;5557;51.670;7.788;2023-03-01T15:43:43;6.20;1.00
11009;DHT22;5557;51.670;7.788;2023-03-01T15:46:31;6.30;1.00
11009;DHT22;5557;51.670;7.788;2023-03-01T15:49:02;6.20;1.00
11009;DHT22;5557;51.670;7.788;2023-03-01T15:51:35;6.30;1.00
11009;DHT22;5557;51.670;7.788;2023-03-01T15:54:24;6.20;1.00
11009;DHT22;5557;51.670;7.788;2023-03-01T15:56:51;6.20;1.00
11009;DHT22;5557;51.670;7.788;2023-03-01T15:59:18;6.20;1.00
11009;DHT22;5557;51.670;7.788;2023-03-01T16:01:45;6.20;1.00
11009;DHT22;5557;51.670;7.788;2023-03-01T16:04:17;6.20;1.00
11009;DHT22;5557;51.670;7.788;2023-03-01T16:06:51;6.10;1.00
11009;DHT22;5557;51.670;7.788;2023-03-01T16:09:22;6.10;1.00
11009;DHT22;5557;51.670;7.788;2023-03-01T16:11:50;6.10;1.00
11009;DHT22;5557;51.670;7.788;2023-03-01T16:14:17;6.10;1.00
11009;DHT22;5557;51.670;7.788;2023-03-01T16:16:46;6.10;1.00
11009;DHT22;5557;51.670;7.788;2023-03-01T16:19:15;6.00;1.00
11009;DHT22;5557;51.670;7.788;2023-03-01T16:21:42;5.90;1.00
11009;DHT22;5557;51.670;7.788;2023-03-01T16:24:13;5.90;1.00
11009;DHT22;5557;51.670;7.788;2023-03-01T16:26:40;5.90;1.00
11009;DHT22;5557;51.670;7.788;2023-03-01T16:29:08;5.90;1.00
11009;DHT22;5557;51.670;7.788;2023-03-01T16:31:35;5.80;1.00
11009;DHT22;5557;51.670;7.788;2023-03-01T16:34:03;5.70;1.00
11009;DHT22;5557;51.670;7.788;2023-03-01T16:36:31;5.70;1.00
11009;DHT22;5557;51.670;7.788;2023-03-01T16:38:59;5.70;1.00
11009;DHT22;5557;51.670;7.788;2023-03-01T16:41:30;5.60;1.00
11009;DHT22;5557;51.670;7.788;2023-03-01T16:43:57;5.60;1.00
11009;DHT22;5557;51.670;7.788;2023-03-01T16:46:26;5.60;1.00
11009;DHT22;5557;51.670;7.788;2023-03-01T16:48:55;5.60;1.00
11009;DHT22;5557;51.670;7.788;2023-03-01T16:51:23;5.50;1.00
11009;DHT22;5557;51.670;7.788;2023-03-01T16:53:51;5.50;1.00
11009;DHT22;5557;51.670;7.788;2023-03-01T16:56:18;5.40;1.00
11009;DHT22;5557;51.670;7.788;2023-03-01T16:58:46;5.40;1.00
11009;DHT22;5557;51.670;7.788;2023-03-01T17:01:18;5.40;1.00
11009;DHT22;5557;51.670;7.788;2023-03-01T17:03:46;5.30;1.00
11009;DHT22;5557;51.670;7.788;2023-03-01T17:06:17;5.20;1.00
11009;DHT22;5557;51.670;7.788;2023-03-01T17:08:44;5.20;1.00
11009;DHT22;5557;51.670;7.788;2023-03-01T17:11:14;5.10;1.00
11009;DHT22;5557;51.670;7.788;2023-03-01T17:13:42;5.10;1.00
11009;DHT22;5557;51.670;7.788;2023-03-01T17:16:11;5.10;1.00
11009;DHT22;5557;51.670;7.788;2023-03-01T17:18:39;5.10;1.00
11009;DHT22;5557;51.670;7.788;2023-03-01T17:21:07;5.00;1.00
11009;DHT22;5557;51.670;7.788;2023-03-01T17:23:35;4.80;1.00
11009;DHT22;5557;51.670;7.788;2023-03-01T17:26:02;4.80;1.00
11009;DHT22;5557;51.670;7.788;2023-03-01T17:28:31;4.70;1.00
11009;DHT22;5557;51.670;7.788;2023-03-01T17:31:00;4.70;1.00
11009;DHT22;5557;51.670;7.788;2023-03-01T17:33:27;4.70;1.00
11009;DHT22;5557;51.670;7.788;2023-03-01T17:35:57;4.60;1.00
11009;DHT22;5557;51.670;7.788;2023-03-01T17:38:26;4.60;1.00
11009;DHT22;5557;51.670;7.788;2023-03-01T17:40:53;4.50;1.00
11009;DHT22;5557;51.670;7.788;2023-03-01T17:43:20;4.40;1.00
11009;DHT22;5557;51.670;7.788;2023-03-01T17:45:47;4.40;1.00
11009;DHT22;5557;51.670;7.788;2023-03-01T17:48:16;4.30;1.00
11009;DHT22;5557;51.670;7.788;2023-03-01T17:50:43;4.30;1.00
11009;DHT22;5557;51.670;7.788;2023-03-01T17:53:11;4.20;1.00